Time;durP1;ratioP1;P1;durP2;ratioP2;P2;SDS_P1;SDS_P2;PMS_P1;PMS_P2;Temp;Humidity;BMP_temperature;BMP_pressure;BME280_temperature;BME280_humidity;BME280_pressure;Samples;Min_cycle;Max_cycle;Signal;HPM_P1;HPM_P2
2022/02/19 00:01:12;;;;;;;3.73;2.50;;;2.30;99.90;2.80;95847.00;;;;5124083;28;20508;-84
2022/02/19 00:04:03;;;;;;;5.10;2.73;;;2.30;99.90;2.50;95856.00;;;;5120249;28;20425;-83
2022/02/19 00:06:51;;;;;;;5.77;3.10;;;2.20;99.90;2.10;95844.00;;;;5106335;28;21000;-83
2022/02/19 00:09:41;;;;;;;5.03;2.77;;;2.10;99.90;1.30;95845.00;;;;5099477;28;20433;-83
2022/02/19 00:12:29;;;;;;;3.73;2.63;;;1.80;99.90;1.90;95844.00;;;;5109845;28;20430;-83
2022/02/19 00:15:18;;;;;;;3.60;2.10;;;1.70;99.90;2.20;95847.00;;;;5105078;28;20459;-83
2022/02/19 00:18:10;;;;;;;2.50;2.30;;;1.70;99.90;2.40;95857.00;;;;5106632;28;20416;-84
2022/02/19 00:21:00;;;;;;;2.37;2.13;;;1.70;99.90;2.60;95847.00;;;;5108255;28;20433;-84
2022/02/19 00:23:49;;;;;;;2.90;1.97;;;1.80;99.90;2.50;95840.00;;;;5113104;28;21006;-84
2022/02/19 00:26:38;;;;;;;2.00;1.70;;;1.90;99.90;2.50;95851.00;;;;5114862;28;20445;-84
2022/02/19 00:29:27;;;;;;;4.63;2.10;;;1.90;99.90;2.20;95862.00;;;;5106691;28;20428;-84
2022/02/19 00:32:16;;;;;;;2.23;1.80;;;1.80;99.90;1.80;95849.00;;;;5105107;28;20420;-84
2022/02/19 00:35:06;;;;;;;2.93;2.20;;;1.70;99.90;2.20;95858.00;;;;5107876;28;20501;-84
2022/02/19 00:37:56;;;;;;;2.70;2.17;;;1.80;99.90;2.50;95862.00;;;;5100438;28;20847;-83
2022/02/19 00:40:45;;;;;;;2.90;1.87;;;1.80;99.90;2.70;95862.00;;;;5104811;28;20428;-84
2022/02/19 00:43:34;;;;;;;2.13;1.93;;;1.90;99.90;2.70;95870.00;;;;5108515;28;20827;-84
2022/02/19 00:46:23;;;;;;;4.10;2.43;;;1.90;99.90;2.50;95872.00;;;;5109782;28;20431;-84
2022/02/19 00:49:12;;;;;;;4.67;2.13;;;2.00;99.90;2.80;95872.00;;;;5107959;28;20433;-84
2022/02/19 00:52:00;;;;;;;4.97;2.83;;;2.00;99.90;2.70;95873.00;;;;5111358;28;20866;-85
2022/02/19 00:54:51;;;;;;;2.37;2.20;;;2.10;99.90;2.20;95868.00;;;;5108728;28;20447;-84
2022/02/19 00:57:40;;;;;;;2.47;1.67;;;2.00;99.90;1.80;95877.00;;;;5102366;28;20433;-84
2022/02/19 01:00:29;;;;;;;2.53;2.07;;;1.80;99.90;1.70;95875.00;;;;5111304;28;20436;-83
2022/02/19 01:03:17;;;;;;;2.60;2.10;;;1.70;99.90;1.10;95879.00;;;;5107396;28;20521;-85
2022/02/19 01:06:06;;;;;;;4.47;2.23;;;1.50;99.90;1.40;95892.00;;;;5103318;28;20960;-85
2022/02/19 01:08:55;;;;;;;4.97;2.47;;;1.40;99.90;1.60;95905.00;;;;5111093;27;20449;-83
2022/02/19 01:11:46;;;;;;;2.53;2.33;;;1.30;99.90;1.50;95890.00;;;;5103417;28;20436;-84
2022/02/19 01:14:35;;;;;;;2.63;2.40;;;1.30;99.90;1.80;95888.00;;;;5111114;28;20463;-84
2022/02/19 01:17:23;;;;;;;2.17;1.97;;;1.40;99.90;1.90;95905.00;;;;5114771;27;20432;-84
2022/02/19 01:20:12;;;;;;;2.33;2.13;;;1.40;99.90;2.00;95909.00;;;;5107175;28;20456;-84
2022/02/19 01:23:01;;;;;;;2.07;1.93;;;1.50;99.90;2.40;95902.00;;;;5110038;28;20503;-84
2022/02/19 01:25:50;;;;;;;4.70;1.73;;;1.60;99.90;2.50;95891.00;;;;5112952;27;20452;-84
2022/02/19 01:28:40;;;;;;;2.33;2.13;;;1.70;99.90;2.30;95903.00;;;;5101955;28;20425;-85
2022/02/19 01:31:29;;;;;;;4.10;2.33;;;1.80;99.90;1.90;95896.00;;;;5109280;28;20440;-84
2022/02/19 01:34:18;;;;;;;2.13;1.93;;;2.00;99.90;2.20;95888.00;;;;5110890;28;20456;-82
2022/02/19 01:37:07;;;;;;;2.13;1.70;;;1.70;99.90;1.70;95896.00;;;;5112111;28;20428;-84
2022/02/19 01:39:56;;;;;;;4.87;2.10;;;1.50;99.90;1.80;95905.00;;;;5111732;28;20798;-84
2022/02/19 01:42:45;;;;;;;2.40;2.20;;;1.50;99.90;2.10;95902.00;;;;5108717;28;20468;-83
2022/02/19 01:45:35;;;;;;;2.80;2.60;;;1.60;99.90;2.30;95916.00;;;;5110303;28;20828;-85
2022/02/19 01:48:24;;;;;;;3.10;2.23;;;1.60;99.90;2.40;95925.00;;;;5112241;28;20828;-84
2022/02/19 01:51:13;;;;;;;10.87;2.50;;;1.60;99.90;2.00;95921.00;;;;5101803;28;20436;-84
2022/02/19 01:54:04;;;;;;;2.77;2.13;;;1.60;99.90;1.80;95922.00;;;;5109559;28;20437;-84
2022/02/19 01:56:54;;;;;;;4.10;2.40;;;1.50;99.90;2.00;95932.00;;;;5110432;28;20849;-84
2022/02/19 01:59:43;;;;;;;3.03;1.73;;;1.40;99.90;1.50;95925.00;;;;5109425;28;20421;-84
2022/02/19 02:02:33;;;;;;;2.33;1.63;;;1.40;99.90;1.30;95932.00;;;;5108224;28;20436;-85
2022/02/19 02:05:22;;;;;;;2.50;2.27;;;1.30;99.90;1.80;95941.00;;;;5108071;28;20453;-85
2022/02/19 02:08:12;;;;;;;3.53;1.90;;;1.20;99.90;1.70;95938.00;;;;5118824;27;20956;-84
2022/02/19 02:11:03;;;;;;;4.53;2.50;;;1.20;99.90;1.20;95949.00;;;;5106651;27;20788;-86
2022/02/19 02:13:52;;;;;;;5.37;3.20;;;1.20;99.90;1.70;95944.00;;;;5104704;28;20952;-85
2022/02/19 02:16:44;;;;;;;3.80;2.30;;;1.20;99.90;1.40;95930.00;;;;5117583;27;20425;-86
2022/02/19 02:19:35;;;;;;;5.83;2.53;;;1.20;99.90;1.90;95950.00;;;;5113489;28;20405;-85
2022/02/19 02:22:25;;;;;;;4.00;2.83;;;1.20;99.90;1.50;95966.00;;;;5112861;28;21032;-84
2022/02/19 02:25:14;;;;;;;3.07;2.77;;;1.20;99.90;1.50;95954.00;;;;5113504;28;20877;-86
2022/02/19 02:28:04;;;;;;;4.43;2.60;;;1.20;99.90;1.50;95949.00;;;;5114458;28;20789;-86
2022/02/19 02:30:53;;;;;;;2.53;2.20;;;1.10;99.90;1.80;95960.00;;;;5114382;28;20443;-84
2022/02/19 02:33:42;;;;;;;2.80;2.60;;;1.10;99.90;1.70;95957.00;;;;5114391;28;20444;-85
2022/02/19 02:36:31;;;;;;;3.73;2.00;;;1.10;99.90;1.90;95974.00;;;;5107572;28;20610;-86
2022/02/19 02:39:21;;;;;;;2.13;1.90;;;1.20;99.90;1.90;95971.00;;;;5113339;28;20429;-85
2022/02/19 02:42:10;;;;;;;2.20;2.00;;;1.30;99.90;1.20;95965.00;;;;5114414;28;20425;-84
2022/02/19 02:44:59;;;;;;;8.87;2.77;;;1.30;99.90;1.70;95970.00;;;;5109190;28;20929;-85
2022/02/19 02:48:06;;;;;;;1.90;1.80;;;1.20;99.90;2.20;96003.00;;;;5116312;28;20451;-85
2022/02/19 02:50:56;;;;;;;4.67;2.10;;;1.30;99.90;2.40;95996.00;;;;5113030;28;20432;-85
2022/02/19 02:54:02;;;;;;;3.17;2.40;;;1.40;99.90;2.50;95998.00;;;;5115210;28;20869;-84
2022/02/19 02:56:52;;;;;;;2.37;2.17;;;1.50;99.90;2.30;96003.00;;;;5114871;28;20447;-85
2022/02/19 02:59:41;;;;;;;2.63;2.43;;;1.60;99.90;1.90;95989.00;;;;5113510;28;20457;-85
2022/02/19 03:02:34;;;;;;;2.17;1.97;;;1.60;99.90;1.60;95992.00;;;;5107469;28;20441;-85
2022/02/19 03:05:22;;;;;;;3.40;1.87;;;1.50;99.90;1.60;95991.00;;;;5112421;28;20480;-84
2022/02/19 03:08:11;;;;;;;2.77;2.23;;;1.40;99.90;1.80;95990.00;;;;5113929;27;20428;-85
2022/02/19 03:11:00;;;;;;;2.23;1.93;;;1.40;99.90;1.90;96006.00;;;;5115411;28;20413;-85
2022/02/19 03:13:50;;;;;;;3.53;2.33;;;1.40;99.90;2.10;96013.00;;;;5125517;28;20421;-84
2022/02/19 03:16:39;;;;;;;2.37;2.17;;;1.30;99.90;2.10;96025.00;;;;5124968;28;20416;-85
2022/02/19 03:19:28;;;;;;;2.07;1.87;;;1.40;99.90;2.10;96024.00;;;;5115469;28;20432;-85
2022/02/19 03:22:17;;;;;;;3.77;2.17;;;1.40;99.90;2.30;96042.00;;;;5111951;28;20429;-84
2022/02/19 03:25:07;;;;;;;2.40;2.20;;;1.50;99.90;2.30;96043.00;;;;5108709;28;20469;-85
2022/02/19 03:27:56;;;;;;;5.50;2.00;;;1.50;99.90;2.10;96038.00;;;;5105166;28;20972;-85
2022/02/19 03:30:46;;;;;;;6.20;2.40;;;1.60;99.90;2.20;96052.00;;;;5100924;28;20427;-84
2022/02/19 03:33:35;;;;;;;4.63;2.50;;;1.60;99.90;2.60;96065.00;;;;5104523;28;20956;-84
2022/02/19 03:36:24;;;;;;;3.00;2.47;;;1.70;99.90;2.50;96063.00;;;;5106145;28;20432;-84
2022/02/19 03:39:13;;;;;;;2.60;2.40;;;1.70;99.90;2.70;96051.00;;;;5113868;28;20436;-86
2022/02/19 03:42:02;;;;;;;5.17;2.30;;;1.80;99.90;3.00;96063.00;;;;5105034;28;20429;-86
2022/02/19 03:44:51;;;;;;;3.63;2.37;;;1.90;99.90;3.00;96061.00;;;;5107496;28;20476;-85
2022/02/19 03:47:43;;;;;;;3.30;2.37;;;2.10;99.90;2.80;96075.00;;;;5108096;28;20933;-85
2022/02/19 03:50:33;;;;;;;3.10;2.80;;;2.20;99.90;2.70;96092.00;;;;5112115;28;20817;-85
2022/02/19 03:53:21;;;;;;;4.60;3.00;;;2.10;99.90;2.60;96094.00;;;;5107356;28;20436;-84
2022/02/19 03:56:10;;;;;;;3.13;2.47;;;2.10;99.90;2.50;96106.00;;;;5106131;28;20818;-85
2022/02/19 03:58:59;;;;;;;3.07;2.53;;;2.00;99.90;2.70;96113.00;;;;5115293;28;20429;-85
2022/02/19 04:01:48;;;;;;;2.20;2.00;;;2.10;99.90;2.80;96124.00;;;;5111912;28;20433;-85
2022/02/19 04:04:38;;;;;;;3.73;2.30;;;2.10;99.90;2.60;96133.00;;;;5114039;28;20468;-86
2022/02/19 04:07:27;;;;;;;2.20;2.00;;;2.10;99.90;2.90;96130.00;;;;5107549;28;20989;-85
2022/02/19 04:10:16;;;;;;;1.57;1.47;;;2.20;99.90;3.70;96139.00;;;;5117236;28;20425;-84
2022/02/19 04:13:04;;;;;;;2.03;1.80;;;2.40;99.90;4.10;96128.00;;;;5113065;28;20451;-85
2022/02/19 04:15:53;;;;;;;2.33;1.20;;;2.80;99.90;5.00;96148.00;;;;5114086;28;20448;-85
2022/02/19 04:18:42;;;;;;;4.33;1.50;;;3.30;99.90;5.00;96155.00;;;;5104761;28;20489;-85
2022/02/19 04:21:32;;;;;;;2.00;1.43;;;3.70;99.90;5.10;96158.00;;;;5109900;28;20431;-84
2022/02/19 04:24:21;;;;;;;1.13;1.00;;;4.00;99.90;5.90;96164.00;;;;5107036;28;20464;-84
2022/02/19 04:27:10;;;;;;;0.50;0.50;;;4.40;99.90;6.20;96173.00;;;;5108727;28;20429;-83
2022/02/19 04:29:59;;;;;;;3.97;0.90;;;4.80;99.90;6.00;96185.00;;;;5103924;28;20429;-83
2022/02/19 04:32:48;;;;;;;1.33;1.03;;;5.10;99.90;6.80;96201.00;;;;5105323;28;20431;-84
2022/02/19 04:35:37;;;;;;;1.00;0.60;;;5.40;99.90;6.80;96200.00;;;;5109795;28;20449;-84
2022/02/19 04:38:28;;;;;;;0.70;0.70;;;5.70;99.90;6.90;96200.00;;;;5102604;28;20205;-83
2022/02/19 04:41:16;;;;;;;0.97;0.93;;;5.80;99.90;7.30;96208.00;;;;5102925;28;20198;-84
2022/02/19 04:44:06;;;;;;;0.53;0.53;;;6.00;99.90;7.40;96214.00;;;;5111801;28;20211;-83
2022/02/19 04:46:55;;;;;;;0.60;0.60;;;6.20;99.90;7.60;96205.00;;;;5111836;28;20206;-83
2022/02/19 04:49:44;;;;;;;0.40;0.40;;;6.40;99.90;7.50;96213.00;;;;5100781;28;20211;-83
2022/02/19 04:52:33;;;;;;;0.90;0.70;;;6.50;99.90;7.60;96210.00;;;;5099336;28;20737;-83
2022/02/19 04:55:24;;;;;;;0.60;0.40;;;6.60;99.90;7.60;96228.00;;;;5106725;28;20219;-83
2022/02/19 04:58:13;;;;;;;0.40;0.40;;;6.60;99.90;7.60;96233.00;;;;5108747;28;20210;-83
2022/02/19 05:01:01;;;;;;;0.30;0.30;;;6.60;99.90;7.60;96223.00;;;;5102105;28;20211;-83
2022/02/19 05:03:53;;;;;;;0.40;0.40;;;6.60;99.90;7.50;96231.00;;;;5105157;28;20206;-84
2022/02/19 05:06:42;;;;;;;0.40;0.40;;;6.80;99.90;7.60;96232.00;;;;5111612;28;20201;-82
2022/02/19 05:09:31;;;;;;;0.60;0.50;;;6.60;99.90;7.50;96237.00;;;;5099390;28;20217;-84
2022/02/19 05:12:21;;;;;;;0.40;0.40;;;6.50;99.90;7.50;96228.00;;;;5107016;28;20198;-84
2022/02/19 05:15:12;;;;;;;1.03;0.60;;;6.50;99.90;7.60;96246.00;;;;5105066;28;20234;-83
2022/02/19 05:18:02;;;;;;;1.23;0.40;;;6.50;99.90;8.10;96252.00;;;;5110685;28;20217;-84
2022/02/19 05:20:51;;;;;;;0.47;0.47;;;6.70;99.90;8.20;96251.00;;;;5111666;28;20445;-83
2022/02/19 05:23:40;;;;;;;0.57;0.50;;;6.80;99.90;8.10;96259.00;;;;5103081;28;20195;-83
2022/02/19 05:26:29;;;;;;;1.87;0.50;;;6.90;99.90;8.20;96274.00;;;;5116051;27;20226;-83
2022/02/19 05:29:19;;;;;;;0.50;0.50;;;7.00;99.90;8.10;96271.00;;;;5112477;28;20679;-84
2022/02/19 05:32:09;;;;;;;0.50;0.40;;;7.00;99.90;8.20;96268.00;;;;5109849;28;20711;-83
2022/02/19 05:34:58;;;;;;;0.50;0.50;;;7.00;99.90;8.20;96278.00;;;;5101015;28;20504;-85
2022/02/19 05:37:47;;;;;;;0.40;0.40;;;7.10;99.90;8.20;96290.00;;;;5112212;28;20221;-83
2022/02/19 05:40:35;;;;;;;0.60;0.40;;;7.10;99.90;8.20;96287.00;;;;5109808;28;20206;-83
2022/02/19 05:43:24;;;;;;;0.40;0.40;;;7.00;99.90;8.10;96290.00;;;;5097771;28;20214;-83
2022/02/19 05:46:15;;;;;;;0.30;0.30;;;7.10;99.90;8.00;96295.00;;;;5108950;27;20386;-83
2022/02/19 05:49:04;;;;;;;1.47;0.47;;;7.00;99.90;8.00;96297.00;;;;5116299;27;20207;-82
2022/02/19 05:51:53;;;;;;;0.83;0.50;;;7.00;99.90;8.40;96320.00;;;;5106193;28;20206;-82
2022/02/19 05:54:42;;;;;;;1.80;0.53;;;7.00;99.90;8.30;96312.00;;;;5112068;28;20226;-83
2022/02/19 05:57:31;;;;;;;0.37;0.37;;;7.10;99.90;8.30;96330.00;;;;5099568;28;20206;-84
2022/02/19 06:00:22;;;;;;;0.70;0.70;;;7.20;99.90;8.40;96336.00;;;;5110972;28;20202;-82
2022/02/19 06:03:13;;;;;;;0.47;0.40;;;7.20;99.90;8.30;96341.00;;;;5109952;28;20198;-83
2022/02/19 06:06:02;;;;;;;0.40;0.30;;;7.30;99.90;8.30;96345.00;;;;5107185;28;20222;-84
2022/02/19 06:08:50;;;;;;;0.37;0.37;;;7.20;99.90;8.30;96353.00;;;;5117125;27;20202;-82
2022/02/19 06:11:42;;;;;;;0.30;0.30;;;7.20;99.90;8.20;96363.00;;;;5107688;27;20199;-83
2022/02/19 06:14:31;;;;;;;0.70;0.60;;;7.20;99.90;8.20;96362.00;;;;5108163;27;20233;-83
2022/02/19 06:17:19;;;;;;;6.13;0.80;;;7.10;99.90;8.20;96381.00;;;;5128198;27;20194;-83
2022/02/19 06:20:11;;;;;;;2.10;0.70;;;7.10;99.90;8.30;96384.00;;;;5098043;28;20218;-82
2022/02/19 06:23:01;;;;;;;1.73;0.60;;;7.10;99.90;8.30;96380.00;;;;5108786;28;20206;-83
2022/02/19 06:25:50;;;;;;;4.57;0.73;;;7.10;99.90;8.30;96390.00;;;;5127870;27;20225;-82
2022/02/19 06:28:39;;;;;;;4.90;0.80;;;7.10;99.90;8.20;96390.00;;;;5126165;27;20206;-83
2022/02/19 06:31:28;;;;;;;1.80;0.70;;;7.10;99.90;8.10;96404.00;;;;5116763;27;20214;-83
2022/02/19 06:34:17;;;;;;;1.00;0.70;;;7.10;99.90;8.00;96404.00;;;;5117271;27;20214;-83
2022/02/19 06:37:07;;;;;;;1.60;0.80;;;7.10;99.90;7.60;96403.00;;;;5117876;27;20198;-83
2022/02/19 06:39:56;;;;;;;1.33;1.20;;;7.00;99.90;7.20;96422.00;;;;5111510;28;20217;-84
2022/02/19 06:42:46;;;;;;;6.07;4.00;;;6.80;99.90;7.50;96422.00;;;;5111363;27;20585;-83
2022/02/19 06:45:35;;;;;;;3.93;3.40;;;6.70;99.90;7.60;96419.00;;;;5107421;27;20236;-83
2022/02/19 06:48:24;;;;;;;3.17;2.77;;;6.70;99.90;7.70;96438.00;;;;5127773;27;20695;-83
2022/02/19 06:51:13;;;;;;;5.23;2.20;;;6.60;99.90;7.70;96436.00;;;;5117627;27;20671;-83
2022/02/19 06:54:03;;;;;;;1.77;1.67;;;6.60;99.90;7.40;96428.00;;;;5110461;27;20199;-83
2022/02/19 06:56:55;;;;;;;3.30;1.53;;;6.60;99.90;7.60;96442.00;;;;5107590;27;20207;-82
2022/02/19 06:59:44;;;;;;;2.67;1.30;;;6.50;99.90;7.70;96437.00;;;;5098331;27;20217;-82
2022/02/19 07:02:33;;;;;;;3.07;1.40;;;6.60;99.90;7.80;96438.00;;;;5101637;27;20589;-82
2022/02/19 07:05:22;;;;;;;2.93;1.50;;;6.60;99.90;7.90;96450.00;;;;5096141;27;20586;-83
2022/02/19 07:08:11;;;;;;;0.40;0.40;;;6.60;99.90;8.00;96455.00;;;;5099325;27;20582;-82
2022/02/19 07:11:02;;;;;;;0.60;0.43;;;6.70;99.90;8.30;96452.00;;;;5097828;27;20214;-83
2022/02/19 07:13:51;;;;;;;0.50;0.50;;;6.80;99.90;8.40;96474.00;;;;5103122;27;20213;-82
2022/02/19 07:16:39;;;;;;;1.47;0.83;;;7.00;99.90;8.60;96466.00;;;;5100198;27;20199;-82
2022/02/19 07:19:28;;;;;;;3.97;0.73;;;7.10;99.30;8.60;96469.00;;;;5095694;27;20221;-82
2022/02/19 07:22:17;;;;;;;0.77;0.43;;;7.20;98.40;8.70;96473.00;;;;5101354;27;20485;-82
2022/02/19 07:25:07;;;;;;;0.97;0.40;;;7.30;97.40;8.80;96480.00;;;;5099381;28;20234;-83
2022/02/19 07:27:58;;;;;;;2.20;0.60;;;7.50;97.30;8.80;96477.00;;;;5099066;27;20207;-82
2022/02/19 07:30:46;;;;;;;1.33;0.53;;;7.50;97.10;8.80;96485.00;;;;5098771;27;20234;-82
2022/02/19 07:33:35;;;;;;;26.33;5.53;;;7.50;96.80;8.80;96494.00;;;;5102304;27;20205;-82
2022/02/19 07:36:26;;;;;;;2.57;1.80;;;7.60;96.70;8.80;96491.00;;;;5101608;28;20211;-81
2022/02/19 07:39:15;;;;;;;3.03;0.63;;;7.60;95.90;8.90;96492.00;;;;5101182;27;20591;-81
2022/02/19 07:42:05;;;;;;;5.30;0.90;;;7.60;96.40;9.00;96513.00;;;;5099871;27;20207;-79
2022/02/19 07:44:56;;;;;;;2.90;0.90;;;7.70;96.80;9.00;96513.00;;;;5097228;28;20241;-81
2022/02/19 07:47:45;;;;;;;2.37;0.73;;;7.70;97.10;9.00;96510.00;;;;5100290;27;20198;-81
2022/02/19 07:59:54;;;;;;;8.27;1.70;;;7.80;96.70;9.20;96525.00;;;;5092509;28;20206;-84
2022/02/19 08:02:42;;;;;;;6.07;0.70;;;7.90;96.80;9.20;96521.00;;;;5098653;28;20290;-82
2022/02/19 08:05:31;;;;;;;2.47;0.70;;;7.90;97.10;9.30;96527.00;;;;5102429;27;20230;-85
2022/02/19 08:08:21;;;;;;;0.83;0.50;;;8.00;96.30;9.40;96535.00;;;;5099628;28;20707;-86
2022/02/19 08:11:10;;;;;;;1.60;1.23;;;8.00;95.00;9.50;96538.00;;;;5102477;27;20214;-84
2022/02/19 08:13:59;;;;;;;7.50;1.17;;;8.10;94.60;9.60;96536.00;;;;5095871;28;20214;-83
2022/02/19 08:16:49;;;;;;;0.67;0.50;;;8.20;93.00;9.70;96547.00;;;;5105546;27;20202;-84
2022/02/19 08:19:38;;;;;;;0.70;0.37;;;8.30;92.10;9.70;96535.00;;;;5095502;28;20198;-84
2022/02/19 08:22:27;;;;;;;1.23;0.43;;;8.40;91.60;9.90;96548.00;;;;5093304;27;20582;-83
2022/02/19 08:25:16;;;;;;;8.27;1.97;;;8.40;91.10;9.80;96549.00;;;;5102560;27;20228;-84
2022/02/19 08:28:06;;;;;;;1.23;0.60;;;8.50;90.40;9.90;96544.00;;;;5110308;27;20540;-84
2022/02/19 08:30:54;;;;;;;0.53;0.53;;;8.60;86.60;10.00;96552.00;;;;5103986;27;20210;-83
2022/02/19 08:33:45;;;;;;;0.60;0.40;;;8.70;84.40;9.90;96554.00;;;;5106485;27;20199;-83
2022/02/19 08:36:34;;;;;;;1.23;0.60;;;8.70;80.70;10.00;96547.00;;;;5098941;27;20469;-83
2022/02/19 08:39:23;;;;;;;4.80;1.57;;;8.80;78.90;10.10;96567.00;;;;5118114;27;20202;-86
2022/02/19 08:42:12;;;;;;;1.03;0.40;;;8.90;77.00;10.30;96553.00;;;;5110991;27;20687;-85
2022/02/19 08:45:02;;;;;;;0.47;0.30;;;8.90;76.20;10.30;96556.00;;;;5105766;27;20229;-84
2022/02/19 08:48:01;;;;;;;1.70;0.50;;;9.00;74.80;10.30;96573.00;;;;5111061;27;20230;-85
2022/02/19 08:50:59;;;;;;;0.97;0.40;;;9.10;74.60;10.30;96574.00;;;;5113974;27;20214;-85
2022/02/19 08:53:48;;;;;;;3.30;0.50;;;9.10;72.80;10.40;96576.00;;;;5104077;27;20237;-84
2022/02/19 08:56:37;;;;;;;2.00;0.50;;;9.20;72.30;10.70;96586.00;;;;5110137;27;20588;-84
2022/02/19 08:59:26;;;;;;;0.97;0.60;;;9.30;73.80;10.60;96583.00;;;;5104453;27;20221;-82
2022/02/19 09:02:15;;;;;;;3.33;0.70;;;9.30;73.30;10.80;96595.00;;;;5106416;27;20675;-85
2022/02/19 09:05:20;;;;;;;0.50;0.50;;;9.40;72.80;10.90;96585.00;;;;5106537;27;20219;-85
2022/02/19 09:08:11;;;;;;;1.03;0.53;;;9.50;73.70;10.90;96597.00;;;;5098765;27;20222;-87
2022/02/19 09:10:59;;;;;;;0.80;0.73;;;9.50;74.50;11.00;96591.00;;;;5102931;28;20199;-87
2022/02/19 09:13:51;;;;;;;0.40;0.40;;;9.60;74.60;11.00;96599.00;;;;5106714;27;20769;-85
2022/02/19 09:16:40;;;;;;;1.10;0.60;;;9.60;73.20;10.90;96604.00;;;;5101257;27;20706;-85
2022/02/19 09:19:29;;;;;;;0.87;0.50;;;9.60;70.00;11.00;96610.00;;;;5103863;27;20722;-84
2022/02/19 09:22:18;;;;;;;1.03;0.47;;;9.70;70.10;11.00;96597.00;;;;5106911;27;20206;-85
2022/02/19 09:25:12;;;;;;;2.00;0.40;;;9.20;68.60;11.10;96604.00;;;;5106416;27;20218;-86
2022/02/19 09:28:01;;;;;;;6.47;0.70;;;9.70;68.90;11.30;96604.00;;;;5099255;28;20247;-85
2022/02/19 09:30:50;;;;;;;0.90;0.63;;;9.80;69.50;11.40;96612.00;;;;5109777;27;20213;-87
2022/02/19 09:33:42;;;;;;;2.27;0.50;;;9.80;70.30;11.40;96604.00;;;;5110381;27;20200;-85
2022/02/19 09:37:00;;;;;;;0.90;0.50;;;11.30;70.00;11.30;96602.00;;;;5103128;27;20256;-83
2022/02/19 09:39:49;;;;;;;1.07;0.63;;;10.00;66.20;11.20;96616.00;;;;5121668;27;20200;-85
2022/02/19 09:42:41;;;;;;;2.40;0.70;;;10.00;63.70;11.60;96602.00;;;;5109668;27;20218;-85
2022/02/19 09:45:30;;;;;;;0.90;0.70;;;10.10;65.30;11.20;96614.00;;;;5108395;27;20214;-83
2022/02/19 09:48:20;;;;;;;0.93;0.43;;;10.10;63.50;11.50;96622.00;;;;5109131;27;20229;-84
2022/02/19 09:51:10;;;;;;;1.40;0.50;;;10.40;63.30;11.60;96623.00;;;;5111541;27;20213;-84
2022/02/19 09:53:59;;;;;;;0.67;0.43;;;10.20;63.20;11.60;96634.00;;;;5104590;27;20207;-85
2022/02/19 09:56:49;;;;;;;0.40;0.40;;;10.20;63.30;10.60;96626.00;;;;5105197;27;20221;-86
2022/02/19 09:59:39;;;;;;;0.50;0.50;;;10.10;58.20;10.80;96626.00;;;;5106767;27;20211;-86
2022/02/19 10:02:33;;;;;;;1.43;0.50;;;10.10;56.90;11.50;96646.00;;;;5105360;27;20209;-85
2022/02/19 10:05:24;;;;;;;2.97;0.80;;;10.20;57.90;11.70;96629.00;;;;5104085;27;20725;-84
2022/02/19 10:08:16;;;;;;;1.40;0.70;;;10.20;59.40;11.80;96638.00;;;;5101279;27;20714;-84
2022/02/19 10:11:05;;;;;;;0.53;0.53;;;10.30;59.80;11.80;96646.00;;;;5105351;27;20198;-86
2022/02/19 10:13:54;;;;;;;1.00;0.50;;;10.30;59.10;11.80;96641.00;;;;5104152;27;20217;-85
2022/02/19 10:16:45;;;;;;;2.53;0.67;;;10.40;58.80;11.90;96643.00;;;;5105838;27;20683;-86
2022/02/19 10:19:46;;;;;;;0.70;0.40;;;10.40;59.20;11.70;96650.00;;;;5101997;27;20709;-85
2022/02/19 10:22:38;;;;;;;2.70;0.63;;;10.50;57.70;12.10;96651.00;;;;5097970;27;20221;-85
2022/02/19 10:25:27;;;;;;;1.83;0.37;;;10.60;58.20;11.90;96640.00;;;;5105655;27;20226;-85
2022/02/19 10:28:18;;;;;;;1.50;0.50;;;10.60;58.30;12.20;96651.00;;;;5106865;27;20226;-85
2022/02/19 10:31:16;;;;;;;0.60;0.40;;;10.80;57.00;12.40;96648.00;;;;5111359;27;20210;-84
2022/02/19 10:34:07;;;;;;;2.33;0.60;;;10.80;56.10;12.20;96651.00;;;;5102246;28;20216;-82
2022/02/19 10:36:56;;;;;;;8.53;0.70;;;10.90;55.90;12.40;96646.00;;;;5106169;28;20215;-83
2022/02/19 10:39:45;;;;;;;1.93;0.80;;;11.00;56.30;12.40;96662.00;;;;5105899;28;20235;-84
2022/02/19 10:42:37;;;;;;;3.23;0.60;;;11.10;55.80;12.30;96662.00;;;;5107932;28;20291;-83
2022/02/19 10:45:27;;;;;;;1.00;0.50;;;11.10;55.10;11.60;96678.00;;;;5110201;28;20617;-85
2022/02/19 10:48:17;;;;;;;0.37;0.37;;;11.00;53.70;11.90;96668.00;;;;5101633;27;20210;-88
2022/02/19 10:51:13;;;;;;;3.73;0.97;;;11.00;54.20;12.40;96680.00;;;;5105439;27;20217;-85
2022/02/19 10:54:02;;;;;;;2.00;0.70;;;11.00;55.10;12.10;96669.00;;;;5101680;27;20202;-85
2022/02/19 10:56:51;;;;;;;1.23;0.57;;;11.00;54.00;12.10;96670.00;;;;5120661;27;20429;-86
2022/02/19 10:59:42;;;;;;;2.20;0.50;;;11.00;53.60;12.10;96671.00;;;;5109141;27;20206;-86
2022/02/19 11:02:31;;;;;;;0.43;0.43;;;11.00;53.30;12.00;96663.00;;;;5105168;27;20202;-84
2022/02/19 11:05:22;;;;;;;0.57;0.33;;;11.00;53.30;11.60;96665.00;;;;5104130;28;20223;-86
2022/02/19 11:08:13;;;;;;;1.50;0.77;;;11.00;52.80;12.10;96668.00;;;;5107732;27;20587;-84
2022/02/19 11:11:03;;;;;;;0.40;0.37;;;11.00;53.20;12.00;96669.00;;;;5116123;27;20202;-86
2022/02/19 11:13:52;;;;;;;0.50;0.43;;;11.00;53.10;12.10;96663.00;;;;5121299;27;20206;-86
2022/02/19 11:16:41;;;;;;;1.27;0.50;;;10.90;53.10;12.50;96664.00;;;;5111386;27;20203;-86
2022/02/19 11:19:32;;;;;;;0.93;0.40;;;11.00;53.40;12.10;96659.00;;;;5118566;27;20410;-85
2022/02/19 11:22:23;;;;;;;3.07;0.70;;;11.00;52.40;12.30;96663.00;;;;5096778;28;20203;-85
2022/02/19 11:25:19;;;;;;;0.47;0.47;;;11.00;52.10;11.70;96659.00;;;;5102763;28;20687;-86
2022/02/19 11:28:12;;;;;;;0.60;0.40;;;11.00;51.20;11.90;96662.00;;;;5110870;28;20226;-85
2022/02/19 11:31:01;;;;;;;2.60;0.60;;;10.90;50.90;12.40;96657.00;;;;5111887;28;20215;-85
2022/02/19 11:33:55;;;;;;;0.40;0.40;;;11.00;51.90;12.30;96661.00;;;;5110577;28;20202;-85
2022/02/19 11:36:44;;;;;;;1.00;0.80;;;11.00;51.80;12.60;96654.00;;;;5108111;28;20210;-85
2022/02/19 11:39:32;;;;;;;0.67;0.50;;;11.00;52.20;12.00;96644.00;;;;5108147;27;20206;-82
2022/02/19 11:42:39;;;;;;;0.30;0.30;;;11.10;50.90;11.70;96644.00;;;;5110362;27;20415;-83
2022/02/19 11:45:31;;;;;;;0.30;0.30;;;9.90;49.50;11.50;96631.00;;;;5103838;28;20221;-86
2022/02/19 11:48:28;;;;;;;0.33;0.33;;;11.00;50.40;11.40;96641.00;;;;5102162;27;20234;-84
2022/02/19 11:51:20;;;;;;;0.90;0.50;;;10.90;49.20;11.70;96638.00;;;;5105883;27;20211;-84
2022/02/19 11:54:27;;;;;;;0.50;0.40;;;11.00;49.70;12.00;96635.00;;;;5112572;27;20206;-86
2022/02/19 11:57:21;;;;;;;2.03;0.70;;;11.10;49.60;12.50;96633.00;;;;5106359;27;20225;-85
2022/02/19 12:00:14;;;;;;;0.70;0.23;;;11.20;49.80;12.30;96627.00;;;;5102698;28;20206;-88
2022/02/19 12:03:27;;;;;;;0.97;0.40;;;11.30;49.00;11.80;96623.00;;;;5099640;28;20203;-85
2022/02/19 12:06:30;;;;;;;1.23;0.50;;;11.30;49.40;12.20;96624.00;;;;5102203;28;20218;-86
2022/02/19 12:09:22;;;;;;;0.70;0.50;;;11.40;48.50;12.10;96630.00;;;;5111207;28;20237;-85
2022/02/19 12:12:11;;;;;;;1.30;0.50;;;11.40;48.70;11.80;96627.00;;;;5111702;28;20205;-85
2022/02/19 12:15:04;;;;;;;0.43;0.43;;;11.40;48.50;11.90;96623.00;;;;5095515;28;20225;-86
2022/02/19 12:17:54;;;;;;;1.90;0.67;;;11.40;48.90;12.60;96636.00;;;;5080144;28;20199;-85
2022/02/19 12:20:43;;;;;;;6.63;0.60;;;11.50;49.20;12.30;96624.00;;;;5107060;28;20201;-84
2022/02/19 12:23:46;;;;;;;3.70;0.43;;;11.60;48.20;12.20;96630.00;;;;5109050;28;20675;-86
2022/02/19 12:27:12;;;;;;;1.30;0.73;;;11.60;48.50;11.90;96615.00;;;;5108837;28;20203;-80
2022/02/19 12:30:25;;;;;;;0.43;0.37;;;11.60;47.90;12.20;96627.00;;;;5111153;28;20199;-87
2022/02/19 12:33:16;;;;;;;0.40;0.40;;;11.60;47.90;12.30;96622.00;;;;5109019;28;20213;-86
2022/02/19 12:36:08;;;;;;;2.60;0.60;;;11.70;48.20;13.00;96626.00;;;;5107914;28;20245;-86
2022/02/19 12:38:57;;;;;;;1.93;0.50;;;11.80;48.50;13.20;96628.00;;;;5092686;28;20203;-85
2022/02/19 12:41:46;;;;;;;2.00;0.60;;;11.90;47.80;13.50;96637.00;;;;5108643;28;20198;-87
2022/02/19 12:44:38;;;;;;;0.70;0.40;;;12.00;48.20;13.20;96631.00;;;;5112124;28;21131;-85
2022/02/19 12:47:27;;;;;;;5.63;0.60;;;12.10;48.10;12.90;96626.00;;;;5111265;28;20237;-84
2022/02/19 12:50:20;;;;;;;1.50;0.53;;;12.20;47.70;13.20;96636.00;;;;5120022;28;20240;-87
2022/02/19 12:53:08;;;;;;;1.60;0.40;;;12.20;47.90;13.30;96633.00;;;;5111542;28;20202;-87
2022/02/19 12:55:58;;;;;;;0.50;0.50;;;12.30;47.80;13.20;96632.00;;;;5110012;27;20713;-85
2022/02/19 12:58:48;;;;;;;1.00;0.67;;;12.40;47.20;13.10;96640.00;;;;5112098;28;20789;-86